sensor_id;sensor_type;location;lat;lon;timestamp;pressure;altitude;pressure_sealevel;temperature;humidity
55757;BME280;41676;44.610;44.078;2022-08-21T00:04:50;99809.28;;;23.88;58.15
55757;BME280;41676;44.610;44.078;2022-08-21T00:09:52;99742.97;;;23.48;58.14
55757;BME280;41676;44.610;44.078;2022-08-21T00:14:53;99759.25;;;23.43;58.88
55757;BME280;41676;44.610;44.078;2022-08-21T00:19:54;99822.53;;;23.79;59.29
55757;BME280;41676;44.610;44.078;2022-08-21T00:24:55;99810.88;;;23.79;59.26
55757;BME280;41676;44.610;44.078;2022-08-21T00:29:55;99783.72;;;23.63;59.47
55757;BME280;41676;44.610;44.078;2022-08-21T00:34:56;99783.97;;;23.67;59.89
55757;BME280;41676;44.610;44.078;2022-08-21T00:39:57;99789.13;;;23.63;60.16
55757;BME280;41676;44.610;44.078;2022-08-21T00:44:58;99795.63;;;23.67;60.51
55757;BME280;41676;44.610;44.078;2022-08-21T00:49:59;99722.91;;;23.29;60.52
55757;BME280;41676;44.610;44.078;2022-08-21T00:55:00;99770.41;;;23.62;61.04
55757;BME280;41676;44.610;44.078;2022-08-21T01:00:06;99711.50;;;23.21;61.73
55757;BME280;41676;44.610;44.078;2022-08-21T01:05:08;99738.34;;;23.28;61.51
55757;BME280;41676;44.610;44.078;2022-08-21T01:10:09;99792.63;;;23.59;61.96
55757;BME280;41676;44.610;44.078;2022-08-21T01:15:12;99777.44;;;23.53;62.67
55757;BME280;41676;44.610;44.078;2022-08-21T01:20:15;99790.19;;;23.52;62.70
55757;BME280;41676;44.610;44.078;2022-08-21T01:25:17;99779.59;;;23.45;62.95
55757;BME280;41676;44.610;44.078;2022-08-21T01:30:23;99801.00;;;23.47;63.72
55757;BME280;41676;44.610;44.078;2022-08-21T01:35:24;99773.28;;;23.30;63.59
55757;BME280;41676;44.610;44.078;2022-08-21T01:40:25;99793.94;;;23.41;63.92
55757;BME280;41676;44.610;44.078;2022-08-21T01:45:26;99730.38;;;22.96;64.25
55757;BME280;41676;44.610;44.078;2022-08-21T01:50:27;99799.84;;;23.33;64.72
55757;BME280;41676;44.610;44.078;2022-08-21T01:55:28;99768.91;;;23.13;64.80
55757;BME280;41676;44.610;44.078;2022-08-21T02:00:29;99796.06;;;23.29;64.97
55757;BME280;41676;44.610;44.078;2022-08-21T02:05:30;99807.72;;;23.29;64.88
55757;BME280;41676;44.610;44.078;2022-08-21T02:10:31;99743.28;;;22.84;65.42
55757;BME280;41676;44.610;44.078;2022-08-21T02:15:33;99807.44;;;23.26;65.38
55757;BME280;41676;44.610;44.078;2022-08-21T02:20:37;99823.13;;;23.23;65.80
55757;BME280;41676;44.610;44.078;2022-08-21T02:25:39;99812.00;;;23.20;65.25
55757;BME280;41676;44.610;44.078;2022-08-21T02:30:43;99820.97;;;23.26;65.49
55757;BME280;41676;44.610;44.078;2022-08-21T02:35:46;99811.19;;;23.19;65.34
55757;BME280;41676;44.610;44.078;2022-08-21T02:40:49;99824.25;;;23.28;65.12
55757;BME280;41676;44.610;44.078;2022-08-21T02:45:51;99823.72;;;23.31;64.89
55757;BME280;41676;44.610;44.078;2022-08-21T02:50:56;99829.13;;;23.31;65.05
55757;BME280;41676;44.610;44.078;2022-08-21T02:55:59;99776.72;;;23.05;64.84
55757;BME280;41676;44.610;44.078;2022-08-21T03:01:00;99843.03;;;23.50;64.17
55757;BME280;41676;44.610;44.078;2022-08-21T03:06:02;99855.28;;;23.67;63.80
55757;BME280;41676;44.610;44.078;2022-08-21T03:11:04;99848.84;;;23.84;63.46
55757;BME280;41676;44.610;44.078;2022-08-21T03:16:05;99863.56;;;24.03;62.96
55757;BME280;41676;44.610;44.078;2022-08-21T03:21:06;99872.56;;;24.29;62.00
55757;BME280;41676;44.610;44.078;2022-08-21T03:26:07;99864.69;;;24.64;60.84
55757;BME280;41676;44.610;44.078;2022-08-21T03:31:08;99888.53;;;25.28;59.57
55757;BME280;41676;44.610;44.078;2022-08-21T03:36:11;99893.72;;;25.89;57.22
55757;BME280;41676;44.610;44.078;2022-08-21T03:41:12;99887.28;;;26.59;55.38
55757;BME280;41676;44.610;44.078;2022-08-21T03:46:13;99831.84;;;26.45;53.92
55757;BME280;41676;44.610;44.078;2022-08-21T03:51:14;99902.91;;;27.06;52.70
55757;BME280;41676;44.610;44.078;2022-08-21T03:56:15;99890.25;;;27.45;52.19
55757;BME280;41676;44.610;44.078;2022-08-21T04:01:16;99780.97;;;27.17;50.83
55757;BME280;41676;44.610;44.078;2022-08-21T04:06:17;99886.25;;;28.04;50.25
55757;BME280;41676;44.610;44.078;2022-08-21T04:11:18;99886.56;;;28.35;49.53
55757;BME280;41676;44.610;44.078;2022-08-21T04:16:19;99893.94;;;28.73;48.93
55757;BME280;41676;44.610;44.078;2022-08-21T04:21:20;99896.28;;;28.79;48.21
55757;BME280;41676;44.610;44.078;2022-08-21T04:26:21;99897.56;;;28.68;47.87
55757;BME280;41676;44.610;44.078;2022-08-21T04:31:23;99895.88;;;28.53;47.58
55757;BME280;41676;44.610;44.078;2022-08-21T04:36:25;99897.16;;;28.75;47.14
55757;BME280;41676;44.610;44.078;2022-08-21T04:41:26;99880.25;;;28.73;46.60
55757;BME280;41676;44.610;44.078;2022-08-21T04:46:27;99889.78;;;28.75;46.38
55757;BME280;41676;44.610;44.078;2022-08-21T04:51:32;99887.66;;;28.86;45.97
55757;BME280;41676;44.610;44.078;2022-08-21T04:56:40;99886.56;;;28.87;45.87
55757;BME280;41676;44.610;44.078;2022-08-21T05:01:43;99893.25;;;28.48;46.28
55757;BME280;41676;44.610;44.078;2022-08-21T05:06:46;99847.56;;;27.78;46.98
55757;BME280;41676;44.610;44.078;2022-08-21T05:11:48;99890.16;;;27.79;47.61
55757;BME280;41676;44.610;44.078;2022-08-21T05:16:50;99863.34;;;27.81;47.42
55757;BME280;41676;44.610;44.078;2022-08-21T05:21:52;99881.34;;;28.20;46.99
55757;BME280;41676;44.610;44.078;2022-08-21T05:26:52;99865.19;;;28.23;46.36
55757;BME280;41676;44.610;44.078;2022-08-21T05:31:53;99880.53;;;28.38;46.31
55757;BME280;41676;44.610;44.078;2022-08-21T05:36:54;99890.53;;;28.48;46.26
55757;BME280;41676;44.610;44.078;2022-08-21T05:41:55;99869.00;;;28.60;45.76
55757;BME280;41676;44.610;44.078;2022-08-21T05:47:01;99874.72;;;28.92;45.97
55757;BME280;41676;44.610;44.078;2022-08-21T05:52:03;99883.34;;;28.99;44.91
55757;BME280;41676;44.610;44.078;2022-08-21T05:57:04;99802.28;;;28.61;44.80
55757;BME280;41676;44.610;44.078;2022-08-21T06:02:05;99865.84;;;29.13;44.44
55757;BME280;41676;44.610;44.078;2022-08-21T06:07:08;99775.47;;;28.63;44.15
55757;BME280;41676;44.610;44.078;2022-08-21T06:12:11;99812.88;;;29.09;43.46
55757;BME280;41676;44.610;44.078;2022-08-21T06:17:12;99821.06;;;29.37;42.90
55757;BME280;41676;44.610;44.078;2022-08-21T06:22:15;99860.03;;;29.84;42.50
55757;BME280;41676;44.610;44.078;2022-08-21T06:27:15;99848.63;;;30.05;42.76
55757;BME280;41676;44.610;44.078;2022-08-21T06:32:18;99879.63;;;30.28;41.71
55757;BME280;41676;44.610;44.078;2022-08-21T06:37:19;99794.31;;;29.62;41.51
55757;BME280;41676;44.610;44.078;2022-08-21T06:42:20;99860.75;;;30.26;41.43
55757;BME280;41676;44.610;44.078;2022-08-21T06:47:20;99850.13;;;30.33;41.24
55757;BME280;41676;44.610;44.078;2022-08-21T06:52:21;99827.47;;;30.64;40.91
55757;BME280;41676;44.610;44.078;2022-08-21T06:57:22;99834.41;;;31.01;40.32
55757;BME280;41676;44.610;44.078;2022-08-21T07:02:23;99843.53;;;31.19;39.72
55757;BME280;41676;44.610;44.078;2022-08-21T07:07:24;99774.97;;;30.79;39.24
55757;BME280;41676;44.610;44.078;2022-08-21T07:12:24;99811.09;;;31.21;39.08
55757;BME280;41676;44.610;44.078;2022-08-21T07:17:26;99834.88;;;31.34;38.74
55757;BME280;41676;44.610;44.078;2022-08-21T07:22:27;99700.94;;;30.79;38.40
55757;BME280;41676;44.610;44.078;2022-08-21T07:27:28;99814.13;;;31.68;38.04
55757;BME280;41676;44.610;44.078;2022-08-21T07:32:28;99824.94;;;31.82;37.75
55757;BME280;41676;44.610;44.078;2022-08-21T07:37:29;99809.28;;;31.91;37.42
55757;BME280;41676;44.610;44.078;2022-08-21T07:42:30;99803.94;;;31.95;37.34
55757;BME280;41676;44.610;44.078;2022-08-21T07:47:31;99823.13;;;32.38;36.95
55757;BME280;41676;44.610;44.078;2022-08-21T07:52:33;99806.97;;;32.37;36.47
55757;BME280;41676;44.610;44.078;2022-08-21T07:57:34;99817.78;;;32.50;35.96
55757;BME280;41676;44.610;44.078;2022-08-21T08:02:35;99771.88;;;32.34;35.03
55757;BME280;41676;44.610;44.078;2022-08-21T08:07:36;99798.44;;;32.85;35.15
55757;BME280;41676;44.610;44.078;2022-08-21T08:12:39;99789.91;;;32.69;34.47
55757;BME280;41676;44.610;44.078;2022-08-21T08:17:41;99789.56;;;32.80;34.26
55757;BME280;41676;44.610;44.078;2022-08-21T08:22:42;99785.22;;;33.08;33.19
55757;BME280;41676;44.610;44.078;2022-08-21T08:27:43;99809.53;;;33.36;31.89
55757;BME280;41676;44.610;44.078;2022-08-21T08:32:45;99783.09;;;33.14;31.88
55757;BME280;41676;44.610;44.078;2022-08-21T08:37:48;99769.00;;;33.15;31.14
55757;BME280;41676;44.610;44.078;2022-08-21T08:42:48;99790.34;;;33.18;31.13
55757;BME280;41676;44.610;44.078;2022-08-21T08:47:55;99752.50;;;33.15;30.83
55757;BME280;41676;44.610;44.078;2022-08-21T08:53:03;99772.00;;;33.52;30.44
55757;BME280;41676;44.610;44.078;2022-08-21T08:58:05;99765.13;;;33.37;31.20
55757;BME280;41676;44.610;44.078;2022-08-21T09:03:06;99697.16;;;33.08;30.90
55757;BME280;41676;44.610;44.078;2022-08-21T09:13:47;99703.50;;;33.30;30.47
55757;BME280;41676;44.610;44.078;2022-08-21T09:18:53;99753.59;;;33.65;30.57
55757;BME280;41676;44.610;44.078;2022-08-21T09:24:43;99743.47;;;33.78;29.66
55757;BME280;41676;44.610;44.078;2022-08-21T09:29:25;99760.63;;;33.96;28.77
55757;BME280;41676;44.610;44.078;2022-08-21T09:34:30;99726.47;;;33.76;29.29
55757;BME280;41676;44.610;44.078;2022-08-21T09:39:39;99722.03;;;33.62;28.45
55757;BME280;41676;44.610;44.078;2022-08-21T09:44:41;99723.53;;;33.60;29.34
55757;BME280;41676;44.610;44.078;2022-08-21T09:49:44;99696.31;;;33.37;28.80
55757;BME280;41676;44.610;44.078;2022-08-21T09:54:45;99636.34;;;33.43;28.61
55757;BME280;41676;44.610;44.078;2022-08-21T09:59:47;99692.44;;;33.93;28.13
55757;BME280;41676;44.610;44.078;2022-08-21T10:04:57;99711.09;;;34.08;28.00
55757;BME280;41676;44.610;44.078;2022-08-21T10:10:13;99716.50;;;34.17;27.42
55757;BME280;41676;44.610;44.078;2022-08-21T10:15:27;99714.97;;;34.07;27.15
55757;BME280;41676;44.610;44.078;2022-08-21T10:25:46;99702.47;;;34.09;26.15
55757;BME280;41676;44.610;44.078;2022-08-21T10:46:31;99665.72;;;34.05;27.16
55757;BME280;41676;44.610;44.078;2022-08-21T10:57:29;99687.31;;;34.03;26.59
55757;BME280;41676;44.610;44.078;2022-08-21T11:02:42;99695.41;;;34.00;26.61
55757;BME280;41676;44.610;44.078;2022-08-21T11:07:49;99685.25;;;34.13;26.93
55757;BME280;41676;44.610;44.078;2022-08-21T11:12:58;99630.75;;;33.85;26.98
55757;BME280;41676;44.610;44.078;2022-08-21T11:23:53;99690.31;;;34.11;27.62
55757;BME280;41676;44.610;44.078;2022-08-21T11:29:00;99641.50;;;33.66;27.68
55757;BME280;41676;44.610;44.078;2022-08-21T11:39:26;99556.25;;;33.03;28.26
55757;BME280;41676;44.610;44.078;2022-08-21T11:44:46;99623.09;;;33.24;29.02
55757;BME280;41676;44.610;44.078;2022-08-21T11:50:15;99684.00;;;33.35;30.08
55757;BME280;41676;44.610;44.078;2022-08-21T11:55:22;99671.28;;;33.30;30.05
55757;BME280;41676;44.610;44.078;2022-08-21T12:00:39;99661.31;;;33.59;28.42
55757;BME280;41676;44.610;44.078;2022-08-21T12:05:44;99607.53;;;32.78;29.73
55757;BME280;41676;44.610;44.078;2022-08-21T12:11:07;99677.97;;;33.21;29.20
55757;BME280;41676;44.610;44.078;2022-08-21T12:16:29;99673.28;;;33.21;28.90
55757;BME280;41676;44.610;44.078;2022-08-21T12:21:30;99613.38;;;32.55;28.66
55757;BME280;41676;44.610;44.078;2022-08-21T12:31:52;99691.56;;;32.96;30.09
55757;BME280;41676;44.610;44.078;2022-08-21T12:37:00;99571.28;;;31.87;30.73
55757;BME280;41676;44.610;44.078;2022-08-21T12:42:31;99657.63;;;32.24;29.55
55757;BME280;41676;44.610;44.078;2022-08-21T12:58:05;99697.78;;;31.99;30.94
55757;BME280;41676;44.610;44.078;2022-08-21T13:03:06;99646.97;;;31.49;30.64
55757;BME280;41676;44.610;44.078;2022-08-21T13:08:10;99722.19;;;31.74;31.16
55757;BME280;41676;44.610;44.078;2022-08-21T13:13:18;99698.59;;;31.73;31.30
55757;BME280;41676;44.610;44.078;2022-08-21T13:18:27;99734.78;;;31.58;31.86
55757;BME280;41676;44.610;44.078;2022-08-21T13:23:29;99728.66;;;31.44;31.99
55757;BME280;41676;44.610;44.078;2022-08-21T13:28:34;99757.75;;;31.53;31.06
55757;BME280;41676;44.610;44.078;2022-08-21T13:33:39;99765.97;;;31.53;31.35
55757;BME280;41676;44.610;44.078;2022-08-21T13:38:42;99753.13;;;31.23;31.82
55757;BME280;41676;44.610;44.078;2022-08-21T13:43:47;99753.56;;;30.99;31.95
55757;BME280;41676;44.610;44.078;2022-08-21T13:48:49;99706.31;;;30.53;32.21
55757;BME280;41676;44.610;44.078;2022-08-21T13:53:51;99777.38;;;30.81;32.67
55757;BME280;41676;44.610;44.078;2022-08-21T13:58:53;99768.72;;;30.56;32.95
55757;BME280;41676;44.610;44.078;2022-08-21T14:03:59;99785.38;;;30.37;33.78
55757;BME280;41676;44.610;44.078;2022-08-21T14:09:12;99705.06;;;29.74;33.32
55757;BME280;41676;44.610;44.078;2022-08-21T14:14:20;99764.66;;;30.00;33.67
55757;BME280;41676;44.610;44.078;2022-08-21T14:19:35;99725.47;;;29.54;33.50
55757;BME280;41676;44.610;44.078;2022-08-21T14:24:39;99792.59;;;29.88;33.35
55757;BME280;41676;44.610;44.078;2022-08-21T14:29:41;99801.28;;;29.68;33.41
55757;BME280;41676;44.610;44.078;2022-08-21T14:34:42;99793.31;;;29.44;33.50
55757;BME280;41676;44.610;44.078;2022-08-21T14:39:43;99805.06;;;29.17;33.88
55757;BME280;41676;44.610;44.078;2022-08-21T14:44:45;99789.25;;;28.86;34.10
55757;BME280;41676;44.610;44.078;2022-08-21T14:49:46;99815.78;;;28.85;34.37
55757;BME280;41676;44.610;44.078;2022-08-21T14:54:46;99838.22;;;28.68;34.80
55757;BME280;41676;44.610;44.078;2022-08-21T14:59:47;99838.00;;;28.51;35.27
55757;BME280;41676;44.610;44.078;2022-08-21T15:04:48;99850.34;;;28.30;35.25
55757;BME280;41676;44.610;44.078;2022-08-21T15:09:49;99882.03;;;28.31;35.78
55757;BME280;41676;44.610;44.078;2022-08-21T15:14:50;99890.66;;;28.19;36.16
55757;BME280;41676;44.610;44.078;2022-08-21T15:19:51;99831.53;;;27.71;36.27
55757;BME280;41676;44.610;44.078;2022-08-21T15:24:52;99909.53;;;27.96;36.98
55757;BME280;41676;44.610;44.078;2022-08-21T15:29:52;99918.53;;;27.78;37.39
55757;BME280;41676;44.610;44.078;2022-08-21T15:34:55;99849.75;;;27.09;37.51
55757;BME280;41676;44.610;44.078;2022-08-21T15:39:56;99919.63;;;27.29;37.92
55757;BME280;41676;44.610;44.078;2022-08-21T15:44:57;99949.09;;;27.27;38.51
55757;BME280;41676;44.610;44.078;2022-08-21T15:49:58;99945.97;;;27.15;39.34
55757;BME280;41676;44.610;44.078;2022-08-21T15:54:59;99955.84;;;27.05;40.14
55757;BME280;41676;44.610;44.078;2022-08-21T16:00:06;99964.66;;;26.92;40.52
55757;BME280;41676;44.610;44.078;2022-08-21T16:05:14;99937.06;;;26.70;40.65
55757;BME280;41676;44.610;44.078;2022-08-21T16:10:19;99959.69;;;26.65;41.59
55757;BME280;41676;44.610;44.078;2022-08-21T16:15:20;99951.66;;;26.45;42.12
55757;BME280;41676;44.610;44.078;2022-08-21T16:20:24;99905.09;;;25.96;43.00
55757;BME280;41676;44.610;44.078;2022-08-21T16:25:26;99969.50;;;26.22;43.74
55757;BME280;41676;44.610;44.078;2022-08-21T16:30:28;99920.44;;;25.77;44.32
55757;BME280;41676;44.610;44.078;2022-08-21T16:35:30;99970.16;;;25.98;44.66
55757;BME280;41676;44.610;44.078;2022-08-21T16:40:31;99988.97;;;25.89;45.38
55757;BME280;41676;44.610;44.078;2022-08-21T16:45:31;99912.41;;;25.36;45.63
55757;BME280;41676;44.610;44.078;2022-08-21T16:50:32;99959.69;;;25.56;45.96
55757;BME280;41676;44.610;44.078;2022-08-21T16:55:34;99917.38;;;25.14;46.27
55757;BME280;41676;44.610;44.078;2022-08-21T17:00:35;99943.97;;;25.27;46.86
55757;BME280;41676;44.610;44.078;2022-08-21T17:05:36;99947.28;;;25.19;46.66
55757;BME280;41676;44.610;44.078;2022-08-21T17:10:37;99843.53;;;24.45;46.86
55757;BME280;41676;44.610;44.078;2022-08-21T17:15:39;99942.34;;;25.05;46.79
55757;BME280;41676;44.610;44.078;2022-08-21T17:20:41;99963.03;;;25.01;46.77
55757;BME280;41676;44.610;44.078;2022-08-21T17:25:46;99928.00;;;24.74;46.66
55757;BME280;41676;44.610;44.078;2022-08-21T17:30:47;99956.25;;;24.83;46.27
55757;BME280;41676;44.610;44.078;2022-08-21T17:35:48;99876.91;;;24.35;46.19
55757;BME280;41676;44.610;44.078;2022-08-21T17:40:49;99939.94;;;24.68;46.29
55757;BME280;41676;44.610;44.078;2022-08-21T17:45:50;99936.94;;;24.54;46.82
55757;BME280;41676;44.610;44.078;2022-08-21T17:50:51;99923.03;;;24.35;47.60
55757;BME280;41676;44.610;44.078;2022-08-21T17:55:52;99914.59;;;24.22;48.42
55757;BME280;41676;44.610;44.078;2022-08-21T18:00:53;99937.13;;;24.22;49.03
55757;BME280;41676;44.610;44.078;2022-08-21T18:05:53;99923.22;;;23.98;49.25
55757;BME280;41676;44.610;44.078;2022-08-21T18:10:57;99898.69;;;23.67;49.48
55757;BME280;41676;44.610;44.078;2022-08-21T18:15:59;99934.56;;;23.80;49.52
55757;BME280;41676;44.610;44.078;2022-08-21T18:21:00;99858.13;;;23.30;49.17
55757;BME280;41676;44.610;44.078;2022-08-21T18:26:01;99869.47;;;23.27;49.36
55757;BME280;41676;44.610;44.078;2022-08-21T18:31:02;99936.00;;;23.50;49.26
55757;BME280;41676;44.610;44.078;2022-08-21T18:36:03;99950.16;;;23.57;49.37
55757;BME280;41676;44.610;44.078;2022-08-21T18:41:04;99881.56;;;23.09;49.20
55757;BME280;41676;44.610;44.078;2022-08-21T18:46:05;99934.84;;;23.31;49.38
55757;BME280;41676;44.610;44.078;2022-08-21T18:51:06;99937.28;;;23.32;49.46
55757;BME280;41676;44.610;44.078;2022-08-21T18:56:06;99940.78;;;23.28;49.44
55757;BME280;41676;44.610;44.078;2022-08-21T19:01:07;99885.31;;;22.98;49.67
55757;BME280;41676;44.610;44.078;2022-08-21T19:06:08;99923.06;;;23.10;49.69
55757;BME280;41676;44.610;44.078;2022-08-21T19:11:09;99931.44;;;23.08;49.45
55757;BME280;41676;44.610;44.078;2022-08-21T19:16:10;99929.19;;;22.95;49.12
55757;BME280;41676;44.610;44.078;2022-08-21T19:21:12;99924.72;;;22.84;48.76
55757;BME280;41676;44.610;44.078;2022-08-21T19:26:14;99935.03;;;22.87;48.66
55757;BME280;41676;44.610;44.078;2022-08-21T19:31:19;99926.00;;;22.76;48.27
55757;BME280;41676;44.610;44.078;2022-08-21T19:36:20;99921.97;;;22.78;48.25
55757;BME280;41676;44.610;44.078;2022-08-21T19:41:27;99917.88;;;22.76;48.47
55757;BME280;41676;44.610;44.078;2022-08-21T19:46:39;99861.75;;;22.29;48.00
55757;BME280;41676;44.610;44.078;2022-08-21T19:51:40;99926.44;;;22.63;48.02
55757;BME280;41676;44.610;44.078;2022-08-21T19:56:42;99903.50;;;22.38;48.09
55757;BME280;41676;44.610;44.078;2022-08-21T20:01:45;99936.88;;;22.49;48.00
55757;BME280;41676;44.610;44.078;2022-08-21T20:06:46;99860.59;;;21.98;47.84
55757;BME280;41676;44.610;44.078;2022-08-21T20:11:50;99895.88;;;22.08;47.79
55757;BME280;41676;44.610;44.078;2022-08-21T20:16:52;99871.63;;;21.91;47.88
55757;BME280;41676;44.610;44.078;2022-08-21T20:21:53;99872.34;;;21.81;48.05
55757;BME280;41676;44.610;44.078;2022-08-21T20:26:55;99762.19;;;21.01;48.05
55757;BME280;41676;44.610;44.078;2022-08-21T20:31:57;99864.78;;;21.61;48.70
55757;BME280;41676;44.610;44.078;2022-08-21T20:36:58;99933.69;;;22.03;49.07
55757;BME280;41676;44.610;44.078;2022-08-21T20:41:59;99837.47;;;21.36;49.16
55757;BME280;41676;44.610;44.078;2022-08-21T20:47:00;99941.78;;;22.03;49.55
55757;BME280;41676;44.610;44.078;2022-08-21T20:52:03;99957.94;;;21.98;50.05
55757;BME280;41676;44.610;44.078;2022-08-21T21:13:02;99949.16;;;21.85;52.64
55757;BME280;41676;44.610;44.078;2022-08-21T21:23:49;99914.94;;;21.74;55.25
55757;BME280;41676;44.610;44.078;2022-08-21T21:29:05;99917.59;;;21.69;55.83
55757;BME280;41676;44.610;44.078;2022-08-21T21:34:08;99904.59;;;21.66;55.37
55757;BME280;41676;44.610;44.078;2022-08-21T21:39:28;99910.63;;;21.73;58.02
55757;BME280;41676;44.610;44.078;2022-08-21T21:50:15;99908.91;;;21.67;58.71
55757;BME280;41676;44.610;44.078;2022-08-21T21:55:28;99897.09;;;21.73;58.03
55757;BME280;41676;44.610;44.078;2022-08-21T22:00:31;99898.47;;;21.54;58.32
55757;BME280;41676;44.610;44.078;2022-08-21T22:15:58;99877.91;;;21.31;60.15
55757;BME280;41676;44.610;44.078;2022-08-21T22:21:19;99903.19;;;21.41;61.60
55757;BME280;41676;44.610;44.078;2022-08-21T22:26:34;99889.13;;;21.39;63.16
55757;BME280;41676;44.610;44.078;2022-08-21T22:31:36;99869.91;;;21.19;61.69
55757;BME280;41676;44.610;44.078;2022-08-21T22:36:40;99893.34;;;21.35;62.65
55757;BME280;41676;44.610;44.078;2022-08-21T22:41:45;99901.25;;;21.37;63.25
55757;BME280;41676;44.610;44.078;2022-08-21T22:46:58;99902.31;;;21.36;64.19
55757;BME280;41676;44.610;44.078;2022-08-21T22:52:10;99904.16;;;21.35;64.72
55757;BME280;41676;44.610;44.078;2022-08-21T22:57:26;99911.88;;;21.27;65.01
55757;BME280;41676;44.610;44.078;2022-08-21T23:07:38;99895.09;;;21.25;64.46
55757;BME280;41676;44.610;44.078;2022-08-21T23:12:39;99827.09;;;20.72;65.37
55757;BME280;41676;44.610;44.078;2022-08-21T23:17:48;99904.44;;;21.17;67.42
55757;BME280;41676;44.610;44.078;2022-08-21T23:54:22;99895.41;;;21.06;68.93
